Time;durP1;ratioP1;P1;durP2;ratioP2;P2;SDS_P1;SDS_P2;PMS_P1;PMS_P2;Temp;Humidity;BMP_temperature;BMP_pressure;BME280_temperature;BME280_humidity;BME280_pressure;Samples;Min_cycle;Max_cycle;Signal;HPM_P1;HPM_P2
2021/04/26 00:01:25;;;;;;;;;;;19.80;58.20;;;;;;5056765;28;1967;-70
2021/04/26 00:03:51;;;;;;;;;;;19.80;58.20;;;;;;5057068;28;1387;-70
2021/04/26 00:06:16;;;;;;;;;;;19.80;58.20;;;;;;5064270;28;1264;-70
2021/04/26 00:08:41;;;;;;;;;;;19.80;58.20;;;;;;5054205;28;1156;-70
2021/04/26 00:11:07;;;;;;;;;;;19.80;58.20;;;;;;5045567;28;809;-71
2021/04/26 00:13:32;;;;;;;;;;;19.80;58.20;;;;;;5072038;28;1397;-70
2021/04/26 00:15:58;;;;;;;;;;;19.80;58.20;;;;;;5054207;28;1664;-70
2021/04/26 00:18:23;;;;;;;;;;;19.80;58.20;;;;;;5054229;28;1194;-70
2021/04/26 00:20:49;;;;;;;;;;;19.80;58.20;;;;;;5054667;28;1959;-70
2021/04/26 00:23:14;;;;;;;;;;;19.80;58.30;;;;;;5044811;28;1450;-71
2021/04/26 00:25:40;;;;;;;;;;;19.80;58.30;;;;;;5066115;28;910;-70
2021/04/26 00:28:05;;;;;;;;;;;19.80;58.30;;;;;;5053853;28;1511;-70
2021/04/26 00:30:30;;;;;;;;;;;19.80;58.30;;;;;;5053904;28;1349;-70
2021/04/26 00:32:56;;;;;;;;;;;19.80;58.30;;;;;;5017181;28;1381;-70
2021/04/26 00:35:21;;;;;;;;;;;19.80;58.30;;;;;;5035065;28;1171;-71
2021/04/26 00:37:47;;;;;;;;;;;19.80;58.30;;;;;;5036351;28;1407;-70
2021/04/26 00:40:12;;;;;;;;;;;19.80;58.30;;;;;;5036617;28;1618;-71
2021/04/26 00:42:38;;;;;;;;;;;19.80;58.30;;;;;;5036223;28;1954;-71
2021/04/26 00:45:08;;;;;;;;;;;19.80;58.30;;;;;;5035928;28;1389;-71
2021/04/26 00:47:33;;;;;;;;;;;19.80;58.30;;;;;;5053866;28;1696;-70
2021/04/26 00:49:59;;;;;;;;;;;19.80;58.30;;;;;;5035968;28;1672;-71
2021/04/26 00:52:24;;;;;;;;;;;19.70;58.30;;;;;;5035338;28;1630;-71
2021/04/26 00:54:49;;;;;;;;;;;19.70;58.30;;;;;;5035558;28;1169;-69
2021/04/26 00:57:15;;;;;;;;;;;19.70;58.30;;;;;;5016939;28;1371;-71
2021/04/26 00:59:40;;;;;;;;;;;19.70;58.30;;;;;;5035994;28;1377;-71
2021/04/26 01:02:06;;;;;;;;;;;19.70;58.30;;;;;;5053589;28;1909;-70
2021/04/26 01:04:31;;;;;;;;;;;19.70;58.30;;;;;;5036097;28;1184;-70
2021/04/26 01:06:57;;;;;;;;;;;19.70;58.30;;;;;;5035863;28;1796;-70
2021/04/26 01:09:22;;;;;;;;;;;19.70;58.30;;;;;;5053995;28;1327;-70
2021/04/26 01:11:51;;;;;;;;;;;19.70;58.30;;;;;;5035189;28;1360;-71
2021/04/26 01:14:28;;;;;;;;;;;19.70;58.40;;;;;;5061478;28;1521;-70
2021/04/26 01:16:56;;;;;;;;;;;19.70;58.40;;;;;;5054419;28;1179;-70
2021/04/26 01:19:21;;;;;;;;;;;19.70;58.40;;;;;;5055699;28;1677;-71
2021/04/26 01:22:04;;;;;;;;;;;19.70;58.40;;;;;;5072208;28;1898;-70
2021/04/26 01:24:48;;;;;;;;;;;19.70;58.40;;;;;;5052362;28;1079;-71
2021/04/26 01:27:23;;;;;;;;;;;19.70;58.40;;;;;;5053182;28;1428;-71
2021/04/26 01:29:56;;;;;;;;;;;19.70;58.40;;;;;;5069044;28;1314;-72
2021/04/26 01:32:32;;;;;;;;;;;19.70;58.40;;;;;;5045122;28;1290;-72
2021/04/26 01:34:58;;;;;;;;;;;19.70;58.40;;;;;;5052828;28;1131;-70
2021/04/26 01:37:23;;;;;;;;;;;19.70;58.40;;;;;;5034552;28;1376;-70
2021/04/26 01:39:49;;;;;;;;;;;19.70;58.40;;;;;;5034874;28;1299;-72
2021/04/26 01:42:15;;;;;;;;;;;19.70;58.40;;;;;;5015267;28;1910;-71
2021/04/26 01:44:40;;;;;;;;;;;19.70;58.40;;;;;;5046539;28;1488;-71
2021/04/26 01:47:06;;;;;;;;;;;19.70;58.40;;;;;;5037170;28;1273;-71
2021/04/26 01:49:31;;;;;;;;;;;19.70;58.30;;;;;;5055054;28;1663;-71
2021/04/26 01:51:56;;;;;;;;;;;19.70;58.30;;;;;;5038290;28;1655;-71
2021/04/26 01:54:22;;;;;;;;;;;19.70;58.30;;;;;;5054655;28;1398;-70
2021/04/26 01:56:48;;;;;;;;;;;19.70;58.20;;;;;;5054182;28;1375;-71
2021/04/26 01:59:13;;;;;;;;;;;19.70;58.20;;;;;;5054413;28;1393;-71
2021/04/26 02:01:39;;;;;;;;;;;19.80;58.30;;;;;;5053963;28;1938;-71
2021/04/26 02:04:04;;;;;;;;;;;19.80;58.20;;;;;;5054116;28;1650;-70
2021/04/26 02:06:30;;;;;;;;;;;19.80;58.20;;;;;;5042384;28;1209;-70
2021/04/26 02:08:55;;;;;;;;;;;19.70;58.10;;;;;;5034891;28;1372;-71
2021/04/26 02:11:21;;;;;;;;;;;19.80;58.20;;;;;;5034931;28;1210;-71
2021/04/26 02:13:46;;;;;;;;;;;19.80;58.20;;;;;;5035197;28;1602;-69
2021/04/26 02:16:12;;;;;;;;;;;19.80;58.10;;;;;;5052593;28;1646;-70
2021/04/26 02:18:37;;;;;;;;;;;19.80;58.10;;;;;;5034772;28;1433;-70
2021/04/26 02:21:03;;;;;;;;;;;19.80;58.10;;;;;;5052546;28;1905;-71
2021/04/26 02:23:30;;;;;;;;;;;19.80;58.10;;;;;;5044759;28;1671;-70
2021/04/26 02:25:55;;;;;;;;;;;19.80;58.00;;;;;;5072503;28;1746;-71
2021/04/26 02:28:21;;;;;;;;;;;19.80;58.00;;;;;;5054746;28;1414;-70
2021/04/26 02:30:47;;;;;;;;;;;19.80;58.30;;;;;;5072695;28;1325;-70
2021/04/26 02:33:13;;;;;;;;;;;19.80;58.00;;;;;;5054161;28;1368;-71
2021/04/26 02:35:43;;;;;;;;;;;19.80;58.00;;;;;;5071933;28;1643;-70
2021/04/26 02:38:12;;;;;;;;;;;19.80;57.90;;;;;;5053912;28;1442;-70
2021/04/26 02:40:44;;;;;;;;;;;19.80;57.90;;;;;;5054118;28;1930;-70
2021/04/26 02:43:09;;;;;;;;;;;19.90;57.90;;;;;;5053959;28;1584;-71
2021/04/26 02:45:35;;;;;;;;;;;19.90;57.80;;;;;;5071860;28;1654;-71
2021/04/26 02:48:00;;;;;;;;;;;20.10;57.70;;;;;;5072325;28;1628;-69
2021/04/26 02:50:26;;;;;;;;;;;20.10;57.50;;;;;;5054452;28;1400;-71
2021/04/26 02:52:52;;;;;;;;;;;20.30;57.30;;;;;;5072253;28;1423;-69
2021/04/26 02:55:21;;;;;;;;;;;20.40;57.10;;;;;;5053868;28;1075;-70
2021/04/26 02:57:46;;;;;;;;;;;20.50;56.90;;;;;;5054461;28;1099;-70
2021/04/26 03:00:14;;;;;;;;;;;20.60;56.60;;;;;;5072212;28;1099;-71
2021/04/26 03:02:39;;;;;;;;;;;20.70;56.40;;;;;;5054218;28;1910;-70
2021/04/26 03:05:05;;;;;;;;;;;20.80;56.20;;;;;;5071920;28;1063;-71
2021/04/26 03:07:31;;;;;;;;;;;20.80;56.00;;;;;;5052490;28;1059;-71
2021/04/26 03:09:56;;;;;;;;;;;20.90;55.80;;;;;;5052197;28;1084;-71
2021/04/26 03:12:22;;;;;;;;;;;21.00;55.60;;;;;;5034305;28;1295;-71
2021/04/26 03:14:47;;;;;;;;;;;21.00;55.50;;;;;;5046779;28;1163;-71
2021/04/26 03:17:12;;;;;;;;;;;21.10;55.40;;;;;;5074699;28;1162;-71
2021/04/26 03:19:39;;;;;;;;;;;21.10;55.30;;;;;;5075517;28;1123;-70
2021/04/26 03:22:04;;;;;;;;;;;21.20;55.20;;;;;;5053669;28;1894;-70
2021/04/26 03:24:30;;;;;;;;;;;21.20;55.10;;;;;;5054789;28;1120;-71
2021/04/26 03:26:55;;;;;;;;;;;21.30;55.10;;;;;;5037443;28;1309;-71
2021/04/26 03:29:21;;;;;;;;;;;21.30;55.00;;;;;;5055497;28;1281;-71
2021/04/26 03:31:47;;;;;;;;;;;21.30;54.90;;;;;;5055533;28;1286;-71
2021/04/26 03:34:12;;;;;;;;;;;21.30;54.80;;;;;;5037760;28;1110;-71
2021/04/26 03:36:37;;;;;;;;;;;21.30;54.80;;;;;;5055149;28;1191;-71
2021/04/26 03:39:04;;;;;;;;;;;21.30;54.80;;;;;;5055360;28;1057;-71
2021/04/26 03:41:29;;;;;;;;;;;21.40;54.90;;;;;;5037324;28;1902;-71
2021/04/26 03:43:55;;;;;;;;;;;21.40;54.90;;;;;;5037554;28;1144;-71
2021/04/26 03:46:20;;;;;;;;;;;21.30;54.80;;;;;;5037202;28;1049;-71
2021/04/26 03:48:46;;;;;;;;;;;21.40;54.90;;;;;;5037180;28;1124;-70
2021/04/26 03:51:11;;;;;;;;;;;21.40;54.90;;;;;;5034670;28;1886;-72
2021/04/26 03:53:37;;;;;;;;;;;21.30;54.80;;;;;;5055263;28;1224;-72
2021/04/26 03:56:02;;;;;;;;;;;21.30;54.80;;;;;;5038453;28;1210;-72
2021/04/26 03:58:28;;;;;;;;;;;21.30;54.80;;;;;;5055268;28;1120;-71
2021/04/26 04:00:53;;;;;;;;;;;21.40;54.90;;;;;;5056470;28;2396;-70
2021/04/26 04:03:19;;;;;;;;;;;21.30;54.90;;;;;;5048536;28;1295;-70
2021/04/26 04:05:45;;;;;;;;;;;21.40;55.00;;;;;;5065954;28;1120;-71
2021/04/26 04:08:10;;;;;;;;;;;21.30;54.90;;;;;;5060972;28;1094;-70
2021/04/26 04:10:36;;;;;;;;;;;21.30;55.00;;;;;;5061575;28;1134;-70
2021/04/26 04:13:01;;;;;;;;;;;21.30;55.00;;;;;;5044981;28;1201;-71
2021/04/26 04:15:27;;;;;;;;;;;21.30;55.10;;;;;;5041221;28;1060;-71
2021/04/26 04:17:52;;;;;;;;;;;21.30;55.10;;;;;;5074534;28;1067;-71
2021/04/26 04:20:18;;;;;;;;;;;21.30;55.10;;;;;;5056714;28;1114;-70
2021/04/26 04:22:43;;;;;;;;;;;21.20;55.20;;;;;;5047340;28;1902;-71
2021/04/26 04:25:09;;;;;;;;;;;21.20;55.20;;;;;;5054198;28;1163;-70
2021/04/26 04:27:34;;;;;;;;;;;21.20;55.30;;;;;;5053564;28;1110;-71
2021/04/26 04:30:01;;;;;;;;;;;21.20;55.30;;;;;;5054391;28;1108;-71
2021/04/26 04:32:26;;;;;;;;;;;21.20;55.30;;;;;;5036247;28;1357;-70
2021/04/26 04:34:51;;;;;;;;;;;21.20;55.40;;;;;;5067656;28;992;-71
2021/04/26 04:37:17;;;;;;;;;;;21.10;55.40;;;;;;5036135;28;1170;-71
2021/04/26 04:39:43;;;;;;;;;;;21.10;55.40;;;;;;5054133;28;1229;-71
2021/04/26 04:42:08;;;;;;;;;;;21.10;55.50;;;;;;5054133;28;1898;-70
2021/04/26 04:44:34;;;;;;;;;;;21.10;55.50;;;;;;5054293;28;1080;-71
2021/04/26 04:46:59;;;;;;;;;;;21.10;55.60;;;;;;5065185;28;1080;-71
2021/04/26 04:49:24;;;;;;;;;;;21.10;55.60;;;;;;5055992;28;1056;-72
2021/04/26 04:51:50;;;;;;;;;;;21.00;55.60;;;;;;5055794;28;1357;-72
2021/04/26 04:54:15;;;;;;;;;;;21.00;55.60;;;;;;5073849;28;1155;-72
2021/04/26 04:56:41;;;;;;;;;;;21.00;55.70;;;;;;5073679;28;1111;-72
2021/04/26 04:59:06;;;;;;;;;;;21.00;55.70;;;;;;5073808;28;1099;-71
2021/04/26 05:01:32;;;;;;;;;;;21.00;55.70;;;;;;5055612;28;1971;-71
2021/04/26 05:03:57;;;;;;;;;;;21.00;55.80;;;;;;5069560;28;1166;-71
2021/04/26 05:06:23;;;;;;;;;;;21.00;55.80;;;;;;5035577;28;1080;-70
2021/04/26 05:08:49;;;;;;;;;;;21.00;55.80;;;;;;5053551;28;1140;-70
2021/04/26 05:11:15;;;;;;;;;;;20.90;55.80;;;;;;5053733;28;1080;-71
2021/04/26 05:13:40;;;;;;;;;;;20.90;55.90;;;;;;5053100;28;1314;-71
2021/04/26 05:16:06;;;;;;;;;;;20.90;55.90;;;;;;5062740;28;1034;-70
2021/04/26 05:18:32;;;;;;;;;;;20.90;56.00;;;;;;5070179;28;1126;-70
2021/04/26 05:20:57;;;;;;;;;;;20.90;56.00;;;;;;5045197;28;1965;-70
2021/04/26 05:23:23;;;;;;;;;;;20.90;56.00;;;;;;5058543;28;1341;-70
2021/04/26 05:25:51;;;;;;;;;;;20.90;56.00;;;;;;5062248;28;1088;-69
2021/04/26 05:28:17;;;;;;;;;;;20.90;56.10;;;;;;5055432;28;1071;-70
2021/04/26 05:30:42;;;;;;;;;;;20.90;56.10;;;;;;5073153;28;1131;-70
2021/04/26 05:33:07;;;;;;;;;;;20.90;56.10;;;;;;5073064;28;1338;-69
2021/04/26 05:35:33;;;;;;;;;;;20.90;56.10;;;;;;5072833;28;1115;-70
2021/04/26 05:38:08;;;;;;;;;;;20.90;56.10;;;;;;5073226;28;1119;-70
2021/04/26 05:40:34;;;;;;;;;;;20.80;56.10;;;;;;5062901;28;1906;-69
2021/04/26 05:42:59;;;;;;;;;;;20.80;56.20;;;;;;5070018;28;1276;-70
2021/04/26 05:45:25;;;;;;;;;;;20.80;56.20;;;;;;5072464;28;1123;-69
2021/04/26 05:47:50;;;;;;;;;;;20.80;56.20;;;;;;5073016;28;1162;-70
2021/04/26 05:50:15;;;;;;;;;;;20.80;56.20;;;;;;5073013;28;1111;-71
2021/04/26 05:52:41;;;;;;;;;;;20.80;56.20;;;;;;5083064;22;2037;-65
2021/04/26 05:55:06;;;;;;;;;;;20.80;56.20;;;;;;5060229;28;1430;-65
2021/04/26 05:57:32;;;;;;;;;;;20.80;56.30;;;;;;5069015;28;1127;-65
2021/04/26 05:59:57;;;;;;;;;;;20.70;56.30;;;;;;5072667;28;1055;-64
2021/04/26 06:02:23;;;;;;;;;;;20.80;56.30;;;;;;5072824;28;1971;-64
2021/04/26 06:04:48;;;;;;;;;;;20.80;56.40;;;;;;5072918;28;1047;-64
2021/04/26 06:07:14;;;;;;;;;;;20.80;56.40;;;;;;5072634;28;1292;-64
2021/04/26 06:09:39;;;;;;;;;;;20.70;56.40;;;;;;5054628;28;1622;-63
2021/04/26 06:12:05;;;;;;;;;;;20.70;56.40;;;;;;5061156;28;1343;-62
2021/04/26 06:14:30;;;;;;;;;;;20.70;56.40;;;;;;5054195;28;1035;-62
2021/04/26 06:16:56;;;;;;;;;;;20.70;56.50;;;;;;5072473;28;1051;-62
2021/04/26 06:19:21;;;;;;;;;;;20.70;56.50;;;;;;5071196;28;1115;-63
2021/04/26 06:21:46;;;;;;;;;;;20.70;56.50;;;;;;5072538;28;1901;-62
2021/04/26 06:24:12;;;;;;;;;;;20.70;56.50;;;;;;5054511;28;1454;-65
2021/04/26 06:26:37;;;;;;;;;;;20.70;56.50;;;;;;5054391;28;1347;-63
2021/04/26 06:29:03;;;;;;;;;;;20.70;56.50;;;;;;5072339;28;1071;-62
2021/04/26 06:31:28;;;;;;;;;;;20.70;56.60;;;;;;5072153;28;1090;-62
2021/04/26 06:33:56;;;;;;;;;;;20.60;56.50;;;;;;5055630;28;1269;-63
2021/04/26 06:36:22;;;;;;;;;;;20.60;56.60;;;;;;5056409;28;1122;-63
2021/04/26 06:38:47;;;;;;;;;;;20.60;56.60;;;;;;5072173;28;1095;-62
2021/04/26 06:41:13;;;;;;;;;;;20.60;56.60;;;;;;5072080;28;1902;-62
2021/04/26 06:43:38;;;;;;;;;;;20.60;56.60;;;;;;5071633;28;1196;-62
2021/04/26 06:46:04;;;;;;;;;;;20.60;56.60;;;;;;5057989;28;982;-62
2021/04/26 06:48:29;;;;;;;;;;;20.60;56.70;;;;;;5072447;28;1142;-63
2021/04/26 06:50:56;;;;;;;;;;;20.60;56.70;;;;;;5073048;28;1099;-63
2021/04/26 06:53:21;;;;;;;;;;;20.60;56.70;;;;;;5076132;28;1313;-62
2021/04/26 06:55:47;;;;;;;;;;;20.60;56.80;;;;;;5075919;28;1099;-62
2021/04/26 06:58:13;;;;;;;;;;;20.50;56.70;;;;;;5076091;28;1075;-63
2021/04/26 07:00:38;;;;;;;;;;;20.60;56.80;;;;;;5075997;28;1957;-62
2021/04/26 07:03:04;;;;;;;;;;;20.50;56.70;;;;;;5075966;28;1207;-62
2021/04/26 07:05:29;;;;;;;;;;;20.50;56.70;;;;;;5075868;28;1111;-62
2021/04/26 07:07:55;;;;;;;;;;;20.50;56.80;;;;;;5076054;28;1068;-62
2021/04/26 07:10:20;;;;;;;;;;;20.50;56.80;;;;;;5075819;28;1063;-62
2021/04/26 07:12:46;;;;;;;;;;;20.50;56.80;;;;;;5075687;28;1256;-62
2021/04/26 07:15:11;;;;;;;;;;;20.50;56.90;;;;;;5075003;28;1099;-63
2021/04/26 07:17:37;;;;;;;;;;;20.50;56.80;;;;;;5075877;28;1071;-62
2021/04/26 07:20:06;;;;;;;;;;;20.50;56.90;;;;;;5075701;28;929;-63
2021/04/26 07:22:31;;;;;;;;;;;20.50;57.50;;;;;;5068172;28;1902;-62
2021/04/26 07:25:00;;;;;;;;;;;20.50;56.90;;;;;;5070966;28;1095;-62
2021/04/26 07:27:25;;;;;;;;;;;20.40;56.90;;;;;;5075344;28;1079;-62
2021/04/26 07:29:50;;;;;;;;;;;20.40;56.90;;;;;;5075587;28;1103;-63
2021/04/26 07:32:16;;;;;;;;;;;20.40;56.90;;;;;;5075312;28;1263;-63
2021/04/26 07:34:41;;;;;;;;;;;20.40;57.00;;;;;;5075414;28;1144;-62
2021/04/26 07:37:07;;;;;;;;;;;20.40;57.00;;;;;;5057614;28;1103;-63
2021/04/26 07:39:32;;;;;;;;;;;20.40;57.00;;;;;;5075357;28;1130;-63
2021/04/26 07:41:58;;;;;;;;;;;20.40;57.10;;;;;;5075147;28;1956;-62
2021/04/26 07:44:24;;;;;;;;;;;20.40;57.10;;;;;;5075312;28;1142;-62
2021/04/26 07:46:49;;;;;;;;;;;20.40;57.10;;;;;;5075385;28;1031;-63
2021/04/26 07:49:14;;;;;;;;;;;20.40;57.10;;;;;;5075117;28;1111;-64
2021/04/26 07:51:40;;;;;;;;;;;20.40;57.10;;;;;;5075354;28;1004;-63
2021/04/26 07:54:05;;;;;;;;;;;20.40;57.10;;;;;;5074831;28;1202;-63
2021/04/26 07:56:31;;;;;;;;;;;20.40;57.20;;;;;;5057082;28;1064;-63
2021/04/26 07:58:56;;;;;;;;;;;20.40;57.20;;;;;;5075007;28;1035;-63
2021/04/26 08:01:22;;;;;;;;;;;20.40;57.20;;;;;;5074868;28;1902;-63
2021/04/26 08:03:47;;;;;;;;;;;20.30;57.20;;;;;;5073964;28;1259;-62
2021/04/26 08:06:13;;;;;;;;;;;20.30;57.20;;;;;;5065949;28;1192;-62
2021/04/26 08:08:38;;;;;;;;;;;20.30;57.20;;;;;;5052286;28;1226;-63
2021/04/26 08:11:04;;;;;;;;;;;20.30;57.20;;;;;;5074775;28;1091;-62
2021/04/26 08:13:31;;;;;;;;;;;20.30;57.20;;;;;;5074476;28;1253;-62
2021/04/26 08:15:57;;;;;;;;;;;20.30;57.30;;;;;;5074434;28;1044;-62
2021/04/26 08:18:23;;;;;;;;;;;20.30;57.30;;;;;;5074474;28;1066;-63
2021/04/26 08:20:48;;;;;;;;;;;20.30;57.30;;;;;;5074504;28;1967;-63
2021/04/26 08:23:13;;;;;;;;;;;20.30;57.30;;;;;;5074371;28;1269;-64
2021/04/26 08:25:39;;;;;;;;;;;20.30;57.30;;;;;;5056188;28;1096;-62
2021/04/26 08:28:05;;;;;;;;;;;20.30;57.30;;;;;;5074305;28;1047;-63
2021/04/26 08:30:30;;;;;;;;;;;20.30;57.40;;;;;;5074347;28;1051;-63
2021/04/26 08:32:55;;;;;;;;;;;20.30;57.40;;;;;;5074328;28;1378;-62
2021/04/26 08:35:21;;;;;;;;;;;20.30;57.40;;;;;;5074017;28;1119;-63
2021/04/26 08:37:46;;;;;;;;;;;20.30;57.40;;;;;;5073939;28;1135;-63
2021/04/26 08:40:12;;;;;;;;;;;20.20;57.40;;;;;;5073987;28;949;-63
2021/04/26 08:42:37;;;;;;;;;;;20.30;57.50;;;;;;5073474;28;1965;-63
2021/04/26 08:45:03;;;;;;;;;;;20.20;57.40;;;;;;5073647;28;973;-63
2021/04/26 08:47:29;;;;;;;;;;;20.20;57.40;;;;;;5073653;28;1170;-62
2021/04/26 08:49:55;;;;;;;;;;;20.20;57.40;;;;;;5074003;28;1087;-63
2021/04/26 08:52:20;;;;;;;;;;;20.20;57.40;;;;;;5055984;28;1284;-62
2021/04/26 08:54:46;;;;;;;;;;;20.20;57.50;;;;;;5038407;28;2260;-62
2021/04/26 08:57:11;;;;;;;;;;;20.20;57.40;;;;;;5047508;28;1472;-62
2021/04/26 08:59:42;;;;;;;;;;;20.20;57.50;;;;;;5048892;28;1935;-64
2021/04/26 09:02:07;;;;;;;;;;;20.20;57.50;;;;;;5068311;28;1965;-63
2021/04/26 09:04:34;;;;;;;;;;;20.20;57.60;;;;;;5072521;28;1071;-62
2021/04/26 09:07:00;;;;;;;;;;;20.20;57.60;;;;;;5068753;28;1186;-63
2021/04/26 09:09:39;;;;;;;;;;;20.20;57.60;;;;;;5073886;28;1708;-63
2021/04/26 09:12:06;;;;;;;;;;;20.20;57.60;;;;;;5055838;28;1638;-62
2021/04/26 09:14:57;;;;;;;;;;;20.20;57.60;;;;;;5065387;28;1429;-62
2021/04/26 09:17:23;;;;;;;;;;;20.20;57.60;;;;;;5057461;28;1411;-62
2021/04/26 09:19:48;;;;;;;;;;;20.20;57.60;;;;;;5073745;28;1636;-63
2021/04/26 09:22:14;;;;;;;;;;;20.10;57.60;;;;;;5068267;28;1906;-63
2021/04/26 09:24:39;;;;;;;;;;;20.10;57.60;;;;;;5066900;28;1354;-62
2021/04/26 09:27:11;;;;;;;;;;;20.10;57.60;;;;;;5073189;28;1541;-62
2021/04/26 09:29:37;;;;;;;;;;;20.10;58.20;;;;;;5073116;28;1648;-63
2021/04/26 09:32:06;;;;;;;;;;;20.10;57.60;;;;;;5054822;28;1283;-63
2021/04/26 09:34:32;;;;;;;;;;;20.10;58.20;;;;;;5054964;28;1434;-63
2021/04/26 09:37:16;;;;;;;;;;;20.10;57.70;;;;;;5073011;28;1105;-62
2021/04/26 09:40:01;;;;;;;;;;;20.10;57.70;;;;;;5068504;28;1993;-63
2021/04/26 09:42:38;;;;;;;;;;;20.10;57.70;;;;;;5056124;28;1906;-63
2021/04/26 09:45:20;;;;;;;;;;;20.10;57.70;;;;;;5064467;28;1067;-63
2021/04/26 09:47:45;;;;;;;;;;;20.10;57.70;;;;;;5055319;28;1288;-63
2021/04/26 09:50:11;;;;;;;;;;;20.10;57.80;;;;;;5072268;28;1121;-64
2021/04/26 09:52:36;;;;;;;;;;;20.10;57.70;;;;;;5072671;28;1198;-63
2021/04/26 09:55:02;;;;;;;;;;;20.10;57.80;;;;;;5072672;28;1087;-64
2021/04/26 09:57:27;;;;;;;;;;;20.10;57.80;;;;;;5054464;28;1225;-63
2021/04/26 09:59:53;;;;;;;;;;;20.00;57.80;;;;;;5054863;28;1120;-63
2021/04/26 10:02:19;;;;;;;;;;;20.00;57.80;;;;;;5049224;28;1968;-63
2021/04/26 10:04:45;;;;;;;;;;;20.00;57.80;;;;;;5072223;28;1063;-63
2021/04/26 10:07:12;;;;;;;;;;;20.00;57.80;;;;;;5072478;28;1054;-63
2021/04/26 10:09:38;;;;;;;;;;;20.00;57.80;;;;;;5054887;28;1124;-63
2021/04/26 10:12:03;;;;;;;;;;;20.00;57.90;;;;;;5072373;28;1188;-63
2021/04/26 10:14:29;;;;;;;;;;;20.00;57.90;;;;;;5072613;28;1169;-63
2021/04/26 10:16:58;;;;;;;;;;;20.00;57.90;;;;;;5072309;28;1071;-63
2021/04/26 10:19:33;;;;;;;;;;;20.00;57.90;;;;;;5054770;28;1004;-63
2021/04/26 10:21:59;;;;;;;;;;;20.00;57.90;;;;;;5054557;28;1973;-63
2021/04/26 10:24:25;;;;;;;;;;;20.00;58.00;;;;;;5072507;28;1091;-64
2021/04/26 10:26:51;;;;;;;;;;;20.00;58.00;;;;;;5057053;28;894;-63
2021/04/26 10:29:25;;;;;;;;;;;20.00;58.00;;;;;;5058804;28;1000;-63
2021/04/26 10:31:56;;;;;;;;;;;20.00;58.00;;;;;;5071920;28;1797;-63
2021/04/26 10:34:22;;;;;;;;;;;20.00;58.00;;;;;;5070869;28;1036;-63
2021/04/26 10:36:50;;;;;;;;;;;19.90;58.00;;;;;;5050086;28;1135;-63
2021/04/26 10:39:19;;;;;;;;;;;20.00;58.10;;;;;;5076357;28;1067;-63
2021/04/26 10:41:52;;;;;;;;;;;19.90;58.00;;;;;;5076608;28;1955;-62
2021/04/26 10:44:36;;;;;;;;;;;19.90;58.00;;;;;;5076417;28;1115;-63
2021/04/26 10:47:13;;;;;;;;;;;19.90;58.10;;;;;;5076273;28;1079;-63
2021/04/26 10:49:39;;;;;;;;;;;19.90;58.00;;;;;;5076114;28;1154;-63
2021/04/26 10:52:24;;;;;;;;;;;19.90;58.00;;;;;;5058262;28;1259;-63
2021/04/26 10:54:49;;;;;;;;;;;19.90;58.10;;;;;;5076071;28;1172;-63
2021/04/26 10:57:34;;;;;;;;;;;19.90;58.10;;;;;;5075833;28;1076;-63
2021/04/26 11:00:17;;;;;;;;;;;19.90;58.10;;;;;;5076023;28;1158;-63
2021/04/26 11:02:43;;;;;;;;;;;19.90;58.00;;;;;;5075850;28;1898;-63
2021/04/26 11:05:35;;;;;;;;;;;19.90;58.00;;;;;;5075849;28;1061;-63
2021/04/26 11:08:07;;;;;;;;;;;19.90;58.00;;;;;;5063063;28;1205;-63
2021/04/26 11:10:34;;;;;;;;;;;19.90;58.00;;;;;;5075764;28;1063;-63
2021/04/26 11:13:00;;;;;;;;;;;19.90;58.10;;;;;;5058031;28;1260;-63
2021/04/26 11:15:26;;;;;;;;;;;19.90;58.00;;;;;;5075343;28;1063;-63
2021/04/26 11:17:51;;;;;;;;;;;19.90;58.00;;;;;;5076170;28;1107;-63
2021/04/26 11:20:18;;;;;;;;;;;19.90;58.00;;;;;;5075649;28;1073;-63
2021/04/26 11:22:44;;;;;;;;;;;19.90;58.00;;;;;;5075815;28;1967;-63
2021/04/26 11:25:10;;;;;;;;;;;19.90;58.00;;;;;;5075256;28;1096;-63
2021/04/26 11:27:36;;;;;;;;;;;19.90;58.00;;;;;;5075548;28;1025;-64
2021/04/26 11:30:02;;;;;;;;;;;19.90;58.00;;;;;;5075481;28;1174;-64
2021/04/26 11:32:27;;;;;;;;;;;19.90;58.00;;;;;;5075400;28;1281;-64
2021/04/26 11:34:59;;;;;;;;;;;19.90;58.00;;;;;;5057457;28;1138;-65
2021/04/26 11:37:36;;;;;;;;;;;19.90;58.00;;;;;;5075176;28;1052;-64
2021/04/26 11:40:14;;;;;;;;;;;19.90;58.10;;;;;;5044755;28;1144;-64
2021/04/26 11:42:39;;;;;;;;;;;19.90;58.00;;;;;;5075127;28;1952;-64
2021/04/26 11:45:06;;;;;;;;;;;19.90;58.00;;;;;;5075157;28;1056;-65
2021/04/26 11:47:31;;;;;;;;;;;19.90;58.00;;;;;;5074911;28;1063;-64
2021/04/26 11:49:57;;;;;;;;;;;19.90;58.00;;;;;;5066081;28;1126;-64
2021/04/26 11:52:27;;;;;;;;;;;19.90;58.00;;;;;;5052793;28;1274;-64
2021/04/26 11:54:53;;;;;;;;;;;19.90;58.00;;;;;;5074962;28;1047;-66
2021/04/26 11:57:22;;;;;;;;;;;19.90;58.00;;;;;;5074519;28;1131;-67
2021/04/26 11:59:49;;;;;;;;;;;19.90;58.00;;;;;;5055526;28;1747;-66
2021/04/26 12:02:24;;;;;;;;;;;19.90;58.00;;;;;;5054757;28;2254;-66
2021/04/26 12:04:49;;;;;;;;;;;19.90;58.60;;;;;;5066541;28;1174;-67
2021/04/26 12:07:15;;;;;;;;;;;19.90;57.90;;;;;;5046959;28;1135;-66
2021/04/26 12:09:40;;;;;;;;;;;19.90;57.90;;;;;;5056918;28;1064;-65
2021/04/26 12:12:07;;;;;;;;;;;20.00;57.90;;;;;;5054978;28;1893;-65
2021/04/26 12:14:32;;;;;;;;;;;20.00;57.70;;;;;;5052823;28;1284;-66
2021/04/26 12:17:17;;;;;;;;;;;20.10;57.70;;;;;;5071496;28;1134;-66
2021/04/26 12:19:42;;;;;;;;;;;20.10;57.50;;;;;;5074536;28;1130;-67
2021/04/26 12:22:08;;;;;;;;;;;20.20;57.40;;;;;;5074370;28;1961;-66
2021/04/26 12:24:33;;;;;;;;;;;20.30;57.20;;;;;;5056585;28;1154;-66
2021/04/26 12:27:00;;;;;;;;;;;20.40;57.00;;;;;;5074093;28;1194;-65
2021/04/26 12:29:28;;;;;;;;;;;20.50;57.50;;;;;;5056350;28;1541;-67
2021/04/26 12:32:13;;;;;;;;;;;20.50;56.70;;;;;;5074080;28;1337;-66
2021/04/26 12:34:48;;;;;;;;;;;20.50;56.50;;;;;;5074604;28;1075;-66
2021/04/26 12:37:13;;;;;;;;;;;20.60;56.40;;;;;;5056189;28;1080;-66
2021/04/26 12:39:39;;;;;;;;;;;20.70;56.30;;;;;;5056337;28;1059;-66
2021/04/26 12:42:08;;;;;;;;;;;20.70;56.20;;;;;;5073644;28;1906;-66
2021/04/26 12:44:34;;;;;;;;;;;20.70;56.10;;;;;;5074114;28;1059;-66
2021/04/26 12:47:13;;;;;;;;;;;20.80;56.10;;;;;;5073726;28;1067;-65
2021/04/26 12:49:38;;;;;;;;;;;20.80;56.00;;;;;;5073460;28;1130;-66
2021/04/26 12:52:13;;;;;;;;;;;20.80;55.90;;;;;;5055865;28;1270;-66
2021/04/26 12:54:57;;;;;;;;;;;20.90;55.90;;;;;;5073747;28;1186;-66
2021/04/26 12:57:23;;;;;;;;;;;20.90;55.80;;;;;;5073536;28;1080;-66
2021/04/26 12:59:48;;;;;;;;;;;20.90;55.80;;;;;;5073933;28;1075;-66
2021/04/26 13:02:19;;;;;;;;;;;21.00;55.80;;;;;;5073648;28;1906;-66
2021/04/26 13:04:44;;;;;;;;;;;21.00;55.70;;;;;;5055778;28;1334;-66
2021/04/26 13:07:10;;;;;;;;;;;21.00;55.60;;;;;;5073217;28;1217;-65
2021/04/26 13:09:35;;;;;;;;;;;21.00;55.60;;;;;;5055702;28;1395;-66
2021/04/26 13:12:01;;;;;;;;;;;21.00;55.60;;;;;;5073565;28;1271;-66
2021/04/26 13:14:29;;;;;;;;;;;21.00;55.50;;;;;;5071036;28;1801;-66
2021/04/26 13:16:58;;;;;;;;;;;21.10;55.50;;;;;;5063390;28;1263;-66
2021/04/26 13:19:27;;;;;;;;;;;21.10;55.50;;;;;;5067963;28;1150;-66
2021/04/26 13:21:52;;;;;;;;;;;21.10;55.50;;;;;;5053624;28;1961;-67
2021/04/26 13:24:22;;;;;;;;;;;21.10;55.50;;;;;;5051541;28;1726;-64
2021/04/26 13:26:59;;;;;;;;;;;21.10;55.50;;;;;;5051289;28;1059;-65
2021/04/26 13:29:25;;;;;;;;;;;21.10;55.50;;;;;;5066237;28;1154;-64
2021/04/26 13:31:51;;;;;;;;;;;21.10;55.50;;;;;;5072795;28;1127;-65
2021/04/26 13:34:16;;;;;;;;;;;21.10;55.50;;;;;;5072151;28;1521;-65
2021/04/26 13:36:42;;;;;;;;;;;21.10;55.50;;;;;;5068976;28;1197;-65
2021/04/26 13:39:10;;;;;;;;;;;21.10;55.50;;;;;;5065579;28;1080;-65
2021/04/26 13:41:36;;;;;;;;;;;21.10;55.50;;;;;;5072911;28;1957;-65
2021/04/26 13:44:01;;;;;;;;;;;21.10;55.50;;;;;;5073038;28;1294;-65
2021/04/26 13:46:27;;;;;;;;;;;21.10;55.50;;;;;;5072612;28;1157;-65
2021/04/26 13:48:53;;;;;;;;;;;21.10;55.50;;;;;;5072845;28;1106;-65
2021/04/26 13:51:18;;;;;;;;;;;21.10;55.60;;;;;;5072863;28;1123;-65
2021/04/26 13:53:44;;;;;;;;;;;21.10;55.40;;;;;;5054786;28;1290;-64
2021/04/26 13:56:09;;;;;;;;;;;21.00;55.40;;;;;;5072527;28;1155;-64
2021/04/26 13:58:35;;;;;;;;;;;21.00;55.50;;;;;;5072759;28;1071;-64
2021/04/26 14:01:01;;;;;;;;;;;21.00;55.60;;;;;;5072097;28;1886;-64
2021/04/26 14:03:26;;;;;;;;;;;21.00;55.60;;;;;;5054796;28;1324;-63
2021/04/26 14:05:52;;;;;;;;;;;21.00;55.60;;;;;;5072320;28;1083;-64
2021/04/26 14:08:17;;;;;;;;;;;21.00;55.70;;;;;;5054821;28;1109;-65
2021/04/26 14:10:43;;;;;;;;;;;21.00;55.70;;;;;;5054772;28;1199;-64
2021/04/26 14:13:08;;;;;;;;;;;21.00;55.80;;;;;;5054824;28;1368;-64
2021/04/26 14:15:34;;;;;;;;;;;20.90;55.80;;;;;;5058859;28;1222;-65
2021/04/26 14:17:59;;;;;;;;;;;20.90;55.80;;;;;;5072714;28;1107;-65
2021/04/26 14:20:24;;;;;;;;;;;20.90;55.90;;;;;;5072440;28;1170;-65
2021/04/26 14:22:50;;;;;;;;;;;20.90;55.90;;;;;;5072435;28;1898;-65
2021/04/26 14:25:15;;;;;;;;;;;20.90;55.90;;;;;;5072116;28;1108;-65
2021/04/26 14:27:41;;;;;;;;;;;20.90;56.00;;;;;;5072794;28;1154;-65
2021/04/26 14:30:07;;;;;;;;;;;20.90;56.00;;;;;;5072407;28;1170;-66